Time;durP1;ratioP1;P1;durP2;ratioP2;P2;SDS_P1;SDS_P2;PMS_P1;PMS_P2;Temp;Humidity;BMP_temperature;BMP_pressure;BME280_temperature;BME280_humidity;BME280_pressure;Samples;Min_cycle;Max_cycle;Signal;HPM_P1;HPM_P2
2023/07/01 00:02:18;;;;;;;9.18;5.32;;;;;;;16.61;100.00;96374.28;4960186;28;20501;-68
2023/07/01 00:04:44;;;;;;;10.35;5.95;;;;;;;16.56;100.00;96371.97;4965416;28;20105;-66
2023/07/01 00:07:09;;;;;;;12.10;5.50;;;;;;;16.48;100.00;96364.97;4959986;28;20038;-68
2023/07/01 00:09:35;;;;;;;8.57;5.70;;;;;;;16.47;100.00;96375.22;4968179;28;20050;-68
2023/07/01 00:12:00;;;;;;;10.60;5.45;;;;;;;16.47;100.00;96379.97;4964534;28;20054;-67
2023/07/01 00:14:26;;;;;;;7.15;4.95;;;;;;;16.51;100.00;96389.81;4960524;28;20102;-68
2023/07/01 00:16:51;;;;;;;8.77;5.28;;;;;;;16.53;100.00;96386.59;4964376;28;20050;-69
2023/07/01 00:19:17;;;;;;;8.02;5.53;;;;;;;16.54;100.00;96388.97;4964891;28;20030;-67
2023/07/01 00:21:43;;;;;;;8.38;5.57;;;;;;;16.49;100.00;96383.88;4996298;28;20038;-68
2023/07/01 00:24:08;;;;;;;11.50;6.35;;;;;;;16.43;100.00;96374.50;4978282;28;20463;-68
2023/07/01 00:26:34;;;;;;;9.27;5.72;;;;;;;16.36;100.00;96377.34;4983730;28;20042;-67
2023/07/01 00:28:59;;;;;;;10.20;6.43;;;;;;;16.39;100.00;96377.28;4965645;28;20039;-69
2023/07/01 00:31:24;;;;;;;8.50;5.50;;;;;;;16.40;100.00;96367.03;4971119;28;20492;-68
2023/07/01 00:33:50;;;;;;;9.82;5.63;;;;;;;16.48;100.00;96360.22;4983107;28;20048;-68
2023/07/01 00:36:15;;;;;;;7.70;5.05;;;;;;;16.48;100.00;96362.22;4977569;28;20050;-67
2023/07/01 00:38:41;;;;;;;8.70;5.72;;;;;;;16.46;100.00;96348.78;4983628;28;20404;-68
2023/07/01 00:41:06;;;;;;;8.60;5.68;;;;;;;16.40;100.00;96351.25;4979028;28;20050;-68
2023/07/01 00:43:31;;;;;;;9.15;5.90;;;;;;;16.38;100.00;96347.31;4982680;28;20046;-66
2023/07/01 00:45:57;;;;;;;10.43;5.47;;;;;;;16.40;100.00;96340.19;4982814;28;20046;-68
2023/07/01 00:48:24;;;;;;;8.57;5.75;;;;;;;16.34;100.00;96343.81;4977762;28;20058;-68
2023/07/01 00:50:51;;;;;;;9.45;6.25;;;;;;;16.25;100.00;96347.84;4965032;28;20047;-66
2023/07/01 00:53:17;;;;;;;14.38;6.00;;;;;;;16.18;100.00;96347.91;4957445;28;20160;-66
2023/07/01 00:55:42;;;;;;;8.10;5.78;;;;;;;16.11;100.00;96350.75;4964443;28;20504;-67
2023/07/01 00:58:08;;;;;;;10.98;6.32;;;;;;;16.15;100.00;96350.72;4958666;28;20039;-69
2023/07/01 01:00:33;;;;;;;11.98;5.97;;;;;;;16.18;100.00;96347.16;4964407;28;20046;-68
2023/07/01 01:03:21;;;;;;;9.52;6.22;;;;;;;16.19;100.00;96349.50;4963460;28;20387;-65
2023/07/01 01:06:07;;;;;;;9.05;5.88;;;;;;;16.07;100.00;96349.25;4945786;28;20523;-69
2023/07/01 01:08:56;;;;;;;8.88;5.78;;;;;;;16.14;100.00;96340.88;4963113;28;20047;-66
2023/07/01 01:11:25;;;;;;;14.38;6.45;;;;;;;16.09;100.00;96347.63;4959390;28;20047;-70
2023/07/01 01:13:53;;;;;;;15.80;7.57;;;;;;;16.01;100.00;96344.19;4945629;28;20042;-68
2023/07/01 01:16:19;;;;;;;15.30;6.82;;;;;;;15.95;100.00;96343.03;4958074;28;20144;-66
2023/07/01 01:18:45;;;;;;;12.52;7.07;;;;;;;15.83;100.00;96335.28;4963421;28;20043;-68
2023/07/01 01:21:13;;;;;;;10.10;7.00;;;;;;;15.85;100.00;96335.66;4979797;28;20034;-68
2023/07/01 01:23:45;;;;;;;11.95;6.93;;;;;;;15.85;100.00;96335.66;4985693;28;20149;-65
2023/07/01 01:26:18;;;;;;;10.65;6.85;;;;;;;15.88;100.00;96345.88;4980044;28;20199;-68
2023/07/01 01:28:43;;;;;;;14.10;7.15;;;;;;;15.86;100.00;96346.31;4982345;28;20214;-65
2023/07/01 01:31:11;;;;;;;11.32;7.38;;;;;;;15.86;100.00;96346.31;4977045;28;20440;-64
2023/07/01 01:33:37;;;;;;;14.85;7.85;;;;;;;15.87;100.00;96352.59;4988962;28;20383;-67
2023/07/01 01:36:14;;;;;;;14.45;7.65;;;;;;;15.83;100.00;96341.59;4984035;28;20046;-61
2023/07/01 01:38:41;;;;;;;10.35;7.07;;;;;;;15.83;100.00;96325.03;4989121;28;20048;-67
2023/07/01 01:41:16;;;;;;;15.60;7.93;;;;;;;15.75;100.00;96329.03;4997321;28;20046;-68
2023/07/01 01:43:48;;;;;;;10.82;7.53;;;;;;;15.81;100.00;96323.84;4981688;28;20042;-67
2023/07/01 01:46:17;;;;;;;12.20;7.63;;;;;;;15.80;100.00;96327.81;4978289;28;20042;-67
2023/07/01 01:48:42;;;;;;;17.05;7.97;;;;;;;15.76;100.00;96346.41;4981260;28;20465;-68
2023/07/01 01:51:09;;;;;;;13.00;7.25;;;;;;;15.85;100.00;96349.47;4957727;28;20080;-66
2023/07/01 01:53:37;;;;;;;9.50;6.95;;;;;;;15.93;100.00;96344.66;4963258;28;20388;-67
2023/07/01 01:56:03;;;;;;;16.35;7.40;;;;;;;15.91;100.00;96345.06;4960095;28;20101;-60
2023/07/01 01:58:29;;;;;;;11.65;7.47;;;;;;;15.93;100.00;96345.44;4962638;28;20070;-69
2023/07/01 02:00:55;;;;;;;9.63;6.93;;;;;;;15.84;100.00;96339.59;4970802;28;20042;-66
2023/07/01 02:03:20;;;;;;;14.20;7.50;;;;;;;15.86;100.00;96342.75;4964620;28;20057;-69
2023/07/01 02:05:46;;;;;;;12.05;7.07;;;;;;;15.67;100.00;96331.06;4964518;28;20039;-69
2023/07/01 02:08:11;;;;;;;10.88;7.13;;;;;;;15.71;100.00;96327.50;4958977;28;20047;-69
2023/07/01 02:10:36;;;;;;;12.57;7.68;;;;;;;15.77;100.00;96332.19;4963357;28;20154;-69
2023/07/01 02:13:02;;;;;;;14.82;6.97;;;;;;;15.82;100.00;96326.22;4960142;28;20039;-63
2023/07/01 02:15:28;;;;;;;12.90;7.28;;;;;;;15.89;100.00;96332.88;4942716;28;20047;-69
2023/07/01 02:17:53;;;;;;;13.73;7.63;;;;;;;15.78;100.00;96331.00;4964900;28;20395;-69
2023/07/01 02:20:19;;;;;;;11.13;7.20;;;;;;;15.78;100.00;96325.47;4974068;28;20033;-68
2023/07/01 02:22:44;;;;;;;12.07;6.93;;;;;;;15.83;100.00;96324.25;4992630;28;20042;-65
2023/07/01 02:25:10;;;;;;;9.82;6.50;;;;;;;15.98;100.00;96317.38;4981560;28;20436;-67
2023/07/01 02:27:35;;;;;;;13.65;6.75;;;;;;;15.99;100.00;96320.91;4985315;28;20045;-68
2023/07/01 02:30:02;;;;;;;9.98;6.90;;;;;;;16.02;100.00;96309.81;4994454;28;20042;-68
2023/07/01 02:32:28;;;;;;;9.80;6.88;;;;;;;16.09;100.00;96324.75;4988670;28;20035;-67
2023/07/01 02:34:54;;;;;;;11.30;6.63;;;;;;;15.97;100.00;96318.56;4985337;28;20100;-68
2023/07/01 02:37:19;;;;;;;9.15;5.95;;;;;;;15.95;100.00;96320.94;4981161;28;20058;-66
2023/07/01 02:39:46;;;;;;;10.70;7.07;;;;;;;15.84;100.00;96323.81;4985980;28;20038;-66
2023/07/01 02:42:11;;;;;;;10.75;6.18;;;;;;;15.81;100.00;96326.63;4980368;28;20115;-65
2023/07/01 02:44:37;;;;;;;12.93;6.43;;;;;;;15.66;100.00;96309.38;4985749;28;20080;-66
2023/07/01 02:47:02;;;;;;;8.95;6.50;;;;;;;15.63;100.00;96310.22;4966044;28;20038;-64
2023/07/01 02:49:28;;;;;;;14.57;6.57;;;;;;;15.68;100.00;96298.72;4950098;28;20137;-67
2023/07/01 02:51:53;;;;;;;11.45;6.47;;;;;;;15.63;100.00;96311.00;4985533;28;20136;-65
2023/07/01 02:54:19;;;;;;;9.85;6.13;;;;;;;15.61;100.00;96296.84;4978971;28;20077;-68
2023/07/01 02:56:44;;;;;;;11.00;6.18;;;;;;;15.65;100.00;96299.56;4985138;28;20065;-67
2023/07/01 02:59:10;;;;;;;9.73;6.13;;;;;;;15.58;100.00;96302.38;4980430;28;20479;-65
2023/07/01 03:01:35;;;;;;;9.80;5.97;;;;;;;15.65;100.00;96308.59;4985601;28;20034;-67
2023/07/01 03:04:01;;;;;;;9.57;5.88;;;;;;;15.66;100.00;96307.44;4984965;28;20038;-67
2023/07/01 03:06:26;;;;;;;9.88;6.00;;;;;;;15.76;100.00;96314.06;4980824;28;20480;-67
2023/07/01 03:08:52;;;;;;;10.82;6.28;;;;;;;15.74;100.00;96307.38;4967907;28;20045;-69
2023/07/01 03:11:17;;;;;;;7.75;5.70;;;;;;;15.79;100.00;96309.69;4980224;28;20043;-68
2023/07/01 03:13:43;;;;;;;10.55;5.68;;;;;;;15.81;100.00;96313.63;4984960;28;20042;-67
2023/07/01 03:16:09;;;;;;;9.25;6.03;;;;;;;15.80;100.00;96305.75;4980682;28;20047;-68
2023/07/01 03:18:35;;;;;;;9.68;5.53;;;;;;;15.82;100.00;96298.59;4985402;28;20046;-63
2023/07/01 03:21:00;;;;;;;8.05;5.15;;;;;;;15.84;100.00;96325.81;4989713;28;20041;-69
2023/07/01 03:23:30;;;;;;;8.60;5.65;;;;;;;15.79;100.00;96326.25;4971784;28;20058;-69
2023/07/01 03:25:56;;;;;;;9.55;5.72;;;;;;;15.79;100.00;96324.28;4985006;28;20044;-68
2023/07/01 03:28:21;;;;;;;9.07;5.13;;;;;;;15.72;100.00;96323.53;4979617;28;21068;-67
2023/07/01 03:30:47;;;;;;;7.38;4.97;;;;;;;15.61;100.00;96323.63;4968954;28;20242;-66
2023/07/01 03:33:12;;;;;;;9.15;5.47;;;;;;;15.56;100.00;96322.13;4972633;28;20158;-67
2023/07/01 03:35:38;;;;;;;9.80;5.82;;;;;;;15.46;100.00;96325.75;4985333;28;20117;-67
2023/07/01 03:38:04;;;;;;;8.48;5.50;;;;;;;15.37;100.00;96320.69;4982200;28;20396;-61
2023/07/01 03:40:29;;;;;;;8.73;5.32;;;;;;;15.35;100.00;96312.03;4984037;28;20105;-64
2023/07/01 03:42:55;;;;;;;9.52;5.75;;;;;;;15.39;100.00;96307.25;4983788;28;20046;-66
2023/07/01 03:45:20;;;;;;;7.30;4.90;;;;;;;15.45;100.00;96305.66;4988101;28;20129;-66
2023/07/01 03:47:45;;;;;;;10.23;5.35;;;;;;;15.49;100.00;96308.38;4984511;28;20170;-66
2023/07/01 03:50:12;;;;;;;12.68;5.47;;;;;;;15.49;100.00;96311.91;4989554;28;20153;-68
2023/07/01 03:52:39;;;;;;;8.77;5.28;;;;;;;15.52;100.00;96301.25;5003872;28;20122;-66
2023/07/01 03:55:06;;;;;;;10.60;5.20;;;;;;;15.52;100.00;96301.25;4979614;28;20455;-62
2023/07/01 03:57:32;;;;;;;7.15;5.00;;;;;;;15.51;100.00;96300.47;4983612;28;20512;-65
2023/07/01 03:59:58;;;;;;;9.75;5.28;;;;;;;15.54;100.00;96299.66;4984509;28;20404;-67
2023/07/01 04:02:23;;;;;;;8.45;4.93;;;;;;;15.55;100.00;96306.72;4977751;28;20042;-70
2023/07/01 04:04:49;;;;;;;7.85;4.82;;;;;;;15.64;100.00;96306.25;4983941;28;20042;-67
2023/07/01 04:07:15;;;;;;;9.10;4.90;;;;;;;15.64;100.00;96298.75;4980367;28;20511;-67
2023/07/01 04:09:41;;;;;;;7.53;4.90;;;;;;;15.62;100.00;96297.59;4995446;28;20337;-66
2023/07/01 04:12:07;;;;;;;6.15;4.55;;;;;;;15.66;100.00;96309.38;4983373;28;20051;-66
2023/07/01 04:14:36;;;;;;;10.82;4.90;;;;;;;15.68;100.00;96316.09;4984073;28;20050;-66
2023/07/01 04:17:02;;;;;;;6.05;4.38;;;;;;;15.75;100.00;96311.69;4982816;28;20492;-61
2023/07/01 04:19:28;;;;;;;6.72;4.10;;;;;;;15.83;100.00;96319.50;4980572;28;20081;-67
2023/07/01 04:21:53;;;;;;;6.82;3.90;;;;;;;15.88;100.00;96323.78;4982803;28;20029;-68
2023/07/01 04:24:18;;;;;;;8.80;4.20;;;;;;;15.84;100.00;96312.00;4989903;28;20045;-67
2023/07/01 04:26:44;;;;;;;6.25;3.95;;;;;;;15.88;100.00;96317.47;5003348;28;20134;-69
2023/07/01 04:29:10;;;;;;;5.88;3.88;;;;;;;15.91;100.00;96311.91;4997534;28;20483;-68
2023/07/01 04:31:35;;;;;;;5.70;3.63;;;;;;;15.98;100.00;96314.59;5003411;28;20108;-67
2023/07/01 04:34:01;;;;;;;7.03;4.25;;;;;;;16.03;100.00;96310.63;5002465;28;20563;-66
2023/07/01 04:36:26;;;;;;;9.00;4.68;;;;;;;16.07;100.00;96310.56;4998733;28;20046;-68
2023/07/01 04:38:51;;;;;;;5.65;3.85;;;;;;;16.08;100.00;96306.59;5003327;28;20133;-68
2023/07/01 04:41:17;;;;;;;8.88;3.30;;;;;;;16.03;100.00;96313.38;4995037;28;20063;-65
2023/07/01 04:43:44;;;;;;;7.38;3.83;;;;;;;16.04;100.00;96315.72;5002038;28;20101;-69
2023/07/01 04:46:09;;;;;;;9.23;4.30;;;;;;;16.12;100.00;96307.38;4999583;28;20078;-66
2023/07/01 04:48:34;;;;;;;5.13;3.28;;;;;;;16.12;100.00;96304.59;5005849;28;20466;-69
2023/07/01 04:51:00;;;;;;;4.65;3.35;;;;;;;16.26;100.00;96285.09;4985468;28;20416;-68
2023/07/01 04:53:25;;;;;;;3.92;2.90;;;;;;;16.35;100.00;96282.59;4982787;28;20038;-66
2023/07/01 04:55:51;;;;;;;5.00;3.00;;;;;;;16.51;100.00;96292.25;4983697;28;20042;-69
2023/07/01 04:58:17;;;;;;;10.93;3.40;;;;;;;16.66;100.00;96290.09;4977925;28;20514;-69
2023/07/01 05:00:42;;;;;;;6.80;3.30;;;;;;;16.80;100.00;96293.44;4982997;28;20038;-68
2023/07/01 05:03:08;;;;;;;4.75;3.22;;;;;;;17.09;100.00;96293.03;4977415;28;20117;-68
2023/07/01 05:05:33;;;;;;;7.43;3.17;;;;;;;17.09;100.00;96300.56;4982909;28;20682;-68
2023/07/01 05:07:58;;;;;;;7.47;3.70;;;;;;;17.20;100.00;96292.84;4983047;28;20038;-67
2023/07/01 05:10:24;;;;;;;6.75;2.83;;;;;;;17.16;100.00;96295.69;4977374;28;20633;-68
2023/07/01 05:12:50;;;;;;;9.20;3.20;;;;;;;17.29;100.00;96297.84;4982413;28;20056;-67
2023/07/01 05:15:16;;;;;;;5.53;3.40;;;;;;;17.21;100.00;96299.94;4960321;28;20046;-68
2023/07/01 05:17:42;;;;;;;6.35;3.25;;;;;;;17.11;100.00;96292.59;4981458;28;20376;-69
2023/07/01 05:20:09;;;;;;;4.32;3.05;;;;;;;16.86;100.00;96302.06;4976838;28;20034;-69
2023/07/01 05:22:35;;;;;;;5.55;2.72;;;;;;;16.93;100.00;96293.66;4979667;28;20054;-68
2023/07/01 05:25:02;;;;;;;4.68;3.17;;;;;;;17.07;100.00;96298.19;4989953;28;20045;-69
2023/07/01 05:27:27;;;;;;;4.45;3.40;;;;;;;16.98;100.00;96300.72;4979606;28;20101;-69
2023/07/01 05:29:53;;;;;;;5.25;3.15;;;;;;;16.86;100.00;96321.44;4983368;28;20043;-68
2023/07/01 05:32:18;;;;;;;5.57;3.22;;;;;;;16.88;100.00;96318.25;4977681;28;20126;-69
2023/07/01 05:34:44;;;;;;;7.28;3.47;;;;;;;17.04;100.00;96309.31;4964273;28;20038;-68
2023/07/01 05:37:09;;;;;;;4.85;2.75;;;;;;;17.17;100.00;96311.06;4977377;28;20051;-68
2023/07/01 05:39:36;;;;;;;5.38;3.05;;;;;;;17.16;100.00;96292.91;4982762;28;20043;-65
2023/07/01 05:42:01;;;;;;;4.95;3.05;;;;;;;17.31;100.00;96300.97;4988734;28;20049;-67
2023/07/01 05:44:27;;;;;;;7.47;2.90;;;;;;;17.41;100.00;96300.00;4981955;28;20046;-68
2023/07/01 05:46:53;;;;;;;5.82;2.53;;;;;;;17.50;100.00;96291.97;4985255;28;20512;-68
2023/07/01 05:49:18;;;;;;;5.65;2.92;;;;;;;17.55;100.00;96312.81;4984804;28;20136;-67
2023/07/01 05:51:44;;;;;;;4.55;2.53;;;;;;;17.62;100.00;96309.94;4981927;28;20068;-66
2023/07/01 05:54:10;;;;;;;4.50;3.10;;;;;;;17.47;100.00;96309.41;4978231;28;20468;-63
2023/07/01 05:56:35;;;;;;;4.53;2.88;;;;;;;17.62;100.00;96307.16;4982163;28;20042;-65
2023/07/01 05:59:01;;;;;;;3.58;2.90;;;;;;;17.60;100.00;96308.81;4983738;28;20039;-67
2023/07/01 06:01:28;;;;;;;4.05;3.03;;;;;;;17.55;100.00;96315.59;4980327;28;20042;-68
2023/07/01 06:03:53;;;;;;;4.05;2.78;;;;;;;17.68;100.00;96307.44;5000429;28;20046;-69
2023/07/01 06:06:18;;;;;;;5.55;2.78;;;;;;;17.63;100.00;96299.63;4992983;28;20400;-68
2023/07/01 06:08:44;;;;;;;5.72;2.92;;;;;;;17.61;100.00;96307.56;4981704;28;20040;-67
2023/07/01 06:11:09;;;;;;;2.65;1.92;;;;;;;17.85;100.00;96308.34;4975888;28;20078;-69
2023/07/01 06:13:37;;;;;;;4.25;2.92;;;;;;;17.93;100.00;96302.28;4983491;28;20047;-68
2023/07/01 06:16:03;;;;;;;5.68;2.78;;;;;;;18.22;100.00;96292.59;4998793;28;20046;-62
2023/07/01 06:18:28;;;;;;;5.63;2.90;;;;;;;18.24;100.00;96295.72;4989438;28;20108;-68
2023/07/01 06:20:54;;;;;;;5.28;2.85;;;;;;;18.11;100.00;96298.38;4981928;28;20038;-70
2023/07/01 06:23:19;;;;;;;3.85;2.63;;;;;;;18.22;100.00;96295.38;4975722;28;20034;-68
2023/07/01 06:25:45;;;;;;;5.82;3.00;;;;;;;18.28;100.00;96283.38;4994216;28;20038;-68
2023/07/01 06:28:10;;;;;;;4.47;2.75;;;;;;;18.47;100.00;96305.94;4996049;28;20049;-70
2023/07/01 06:30:35;;;;;;;5.00;3.03;;;;;;;19.11;100.00;96312.09;5001984;28;20046;-69
2023/07/01 06:33:01;;;;;;;6.43;2.70;;;;;;;20.86;96.67;96319.78;5001708;28;20041;-68
2023/07/01 06:35:26;;;;;;;8.05;3.05;;;;;;;21.28;87.57;96321.66;4997258;28;20046;-71
2023/07/01 06:37:52;;;;;;;8.35;2.63;;;;;;;21.75;80.46;96320.94;5001449;28;20065;-70
2023/07/01 06:40:17;;;;;;;4.50;2.20;;;;;;;23.03;76.22;96319.50;4996979;28;20042;-70
2023/07/01 06:42:43;;;;;;;5.95;2.97;;;;;;;23.33;71.74;96308.78;5000931;28;20487;-72
2023/07/01 06:45:09;;;;;;;5.38;2.33;;;;;;;23.71;65.64;96308.41;4994874;28;20463;-71
2023/07/01 06:47:34;;;;;;;6.65;2.55;;;;;;;23.14;73.36;96302.34;5000457;28;20558;-70
2023/07/01 06:49:59;;;;;;;5.32;2.53;;;;;;;22.36;76.73;96327.19;4989120;28;20137;-71
2023/07/01 06:52:27;;;;;;;6.43;3.05;;;;;;;21.50;81.23;96318.97;4975668;28;20496;-70
2023/07/01 06:54:52;;;;;;;5.43;3.03;;;;;;;20.51;84.10;96304.88;4984458;28;20042;-70
2023/07/01 06:57:17;;;;;;;6.30;3.20;;;;;;;20.21;90.39;96301.38;4977845;28;20061;-70
2023/07/01 06:59:43;;;;;;;9.43;2.78;;;;;;;20.16;93.47;96311.03;4981548;28;20504;-70
2023/07/01 07:02:08;;;;;;;8.05;3.55;;;;;;;20.39;92.05;96314.78;4975864;28;20105;-70
2023/07/01 07:04:34;;;;;;;5.45;2.97;;;;;;;20.94;88.70;96318.34;4985004;28;20396;-69
2023/07/01 07:06:59;;;;;;;6.63;3.17;;;;;;;21.32;85.44;96319.53;4992844;28;20033;-70
2023/07/01 07:09:24;;;;;;;6.03;4.22;;;;;;;21.32;83.94;96303.63;4999864;28;20049;-71
2023/07/01 07:11:54;;;;;;;6.60;3.70;;;;;;;20.94;83.43;96311.97;5004608;28;20041;-71
2023/07/01 07:14:20;;;;;;;4.15;2.75;;;;;;;21.95;78.59;96312.31;4998521;28;20115;-70
2023/07/01 07:16:48;;;;;;;7.22;3.30;;;;;;;22.52;74.11;96315.06;5005263;28;20037;-71
2023/07/01 07:19:14;;;;;;;5.85;3.30;;;;;;;21.78;78.77;96308.88;5000613;28;20045;-69
2023/07/01 07:21:40;;;;;;;9.27;3.17;;;;;;;22.18;77.10;96313.84;5000596;28;20053;-68
2023/07/01 07:24:05;;;;;;;5.95;2.53;;;;;;;23.45;71.15;96305.88;4981635;28;20046;-68
2023/07/01 07:26:31;;;;;;;8.10;2.67;;;;;;;23.92;64.89;96317.94;4995654;28;20038;-70
2023/07/01 07:28:56;;;;;;;9.13;4.03;;;;;;;23.87;64.06;96312.19;4984869;28;20050;-68
2023/07/01 07:31:22;;;;;;;4.75;2.83;;;;;;;23.74;62.48;96299.09;4964741;28;20817;-66
2023/07/01 07:33:47;;;;;;;5.03;2.78;;;;;;;23.62;62.85;96298.00;4962734;28;20102;-68
2023/07/01 07:36:12;;;;;;;5.88;3.72;;;;;;;22.95;64.73;96293.88;4977002;28;20058;-69
2023/07/01 07:38:38;;;;;;;4.85;3.20;;;;;;;22.99;64.69;96308.47;4983076;28;20129;-68
2023/07/01 07:41:03;;;;;;;4.35;2.72;;;;;;;23.11;64.49;96300.50;4982613;28;20042;-65
2023/07/01 07:43:28;;;;;;;4.25;3.20;;;;;;;23.12;66.30;96291.66;4979869;28;20158;-70
2023/07/01 07:45:54;;;;;;;5.82;2.75;;;;;;;23.52;63.45;96290.06;5016248;28;20134;-67
2023/07/01 07:48:19;;;;;;;5.20;3.17;;;;;;;23.42;61.05;96298.41;5011320;28;20046;-69
2023/07/01 07:50:45;;;;;;;7.55;3.33;;;;;;;22.57;66.73;96294.94;4998287;28;20041;-70
2023/07/01 07:53:12;;;;;;;7.00;3.00;;;;;;;22.62;66.18;96297.13;4990881;28;20046;-68
2023/07/01 07:55:38;;;;;;;6.03;3.10;;;;;;;22.13;66.04;96290.13;4996270;28;20046;-69
2023/07/01 07:58:03;;;;;;;7.35;3.45;;;;;;;21.91;70.07;96283.75;4995798;28;20053;-65
2023/07/01 08:00:29;;;;;;;4.13;3.08;;;;;;;22.43;69.10;96292.69;4979516;28;20050;-69
2023/07/01 08:02:54;;;;;;;5.10;2.88;;;;;;;23.16;66.63;96297.88;4998339;28;20038;-68
2023/07/01 08:05:21;;;;;;;8.45;3.38;;;;;;;23.33;63.64;96287.22;4992994;28;20038;-68
2023/07/01 08:07:47;;;;;;;6.25;3.22;;;;;;;22.35;68.09;96285.81;4997963;28;20042;-70
2023/07/01 08:10:14;;;;;;;4.75;2.88;;;;;;;22.28;67.63;96279.25;4992277;28;20046;-69
2023/07/01 08:12:40;;;;;;;6.38;3.08;;;;;;;22.23;68.31;96277.03;4995301;28;20050;-69
2023/07/01 08:15:06;;;;;;;6.82;3.72;;;;;;;22.14;70.79;96288.88;4991604;28;20209;-70
2023/07/01 08:17:31;;;;;;;5.60;3.35;;;;;;;23.18;66.92;96287.03;4986877;28;20121;-70
2023/07/01 08:19:56;;;;;;;6.03;3.10;;;;;;;23.25;63.64;96288.75;4984832;28;20125;-69
2023/07/01 08:22:22;;;;;;;4.45;2.88;;;;;;;22.92;63.09;96283.63;4979675;28;20128;-70
2023/07/01 08:24:47;;;;;;;5.32;3.45;;;;;;;23.59;61.14;96276.56;4987102;28;20162;-70
2023/07/01 08:27:13;;;;;;;5.18;2.85;;;;;;;23.13;62.96;96268.06;4998505;28;20040;-68
2023/07/01 08:29:38;;;;;;;7.25;3.30;;;;;;;22.53;64.73;96271.97;5004003;28;20049;-69
2023/07/01 08:32:04;;;;;;;8.23;3.55;;;;;;;21.95;66.09;96268.47;4999721;28;20049;-67
2023/07/01 08:34:29;;;;;;;7.57;3.40;;;;;;;21.68;67.85;96260.66;5002752;28;20034;-68
2023/07/01 08:36:55;;;;;;;6.65;3.28;;;;;;;22.66;63.87;96261.50;5002987;28;20487;-66
2023/07/01 08:39:20;;;;;;;7.15;3.33;;;;;;;23.17;62.00;96254.72;4997483;28;20080;-67
2023/07/01 08:41:51;;;;;;;5.05;3.00;;;;;;;23.27;61.81;96264.69;5002400;28;20135;-69
2023/07/01 08:44:19;;;;;;;4.93;3.17;;;;;;;23.31;61.80;96255.41;4989762;28;20048;-70
2023/07/01 08:46:46;;;;;;;8.23;3.47;;;;;;;23.47;62.56;96255.88;5002362;28;20146;-68
2023/07/01 08:49:15;;;;;;;6.50;2.88;;;;;;;24.29;57.77;96261.97;4992279;28;20042;-70
2023/07/01 08:51:41;;;;;;;;;;;;;;;24.26;56.11;96253.75;4984349;28;20443;-69
2023/07/01 08:54:09;;;;;;;7.15;2.88;;;;;;;25.02;54.77;96257.41;4979275;28;19924;-69
2023/07/01 08:56:35;;;;;;;10.80;3.13;;;;;;;24.73;53.43;96258.00;4987507;28;20045;-70
2023/07/01 08:59:00;;;;;;;7.75;4.28;;;;;;;25.22;50.90;96259.66;4986697;28;20062;-70
2023/07/01 09:01:28;;;;;;;5.47;2.90;;;;;;;25.74;49.40;96253.91;4978322;28;20076;-69
2023/07/01 09:03:54;;;;;;;6.13;2.70;;;;;;;25.52;47.73;96252.19;4982300;28;20042;-70
2023/07/01 09:06:20;;;;;;;6.30;2.35;;;;;;;25.72;46.60;96257.19;4963561;28;20034;-70
2023/07/01 09:08:45;;;;;;;7.10;2.40;;;;;;;25.35;47.48;96256.66;5002304;28;20357;-71
2023/07/01 09:11:16;;;;;;;7.82;2.17;;;;;;;24.99;46.86;96249.94;4997015;28;20038;-70
2023/07/01 09:13:42;;;;;;;4.72;2.13;;;;;;;25.75;44.65;96247.06;5000789;28;20049;-70
2023/07/01 09:16:08;;;;;;;4.65;2.05;;;;;;;25.21;46.88;96241.31;4997971;28;20067;-70
2023/07/01 09:18:34;;;;;;;3.85;1.73;;;;;;;25.09;46.87;96245.88;5002528;28;20046;-69
2023/07/01 09:21:00;;;;;;;5.25;1.75;;;;;;;25.38;45.02;96236.09;5002485;28;20045;-69
2023/07/01 09:23:30;;;;;;;3.95;1.90;;;;;;;25.64;44.59;96232.78;4977782;28;20051;-69
2023/07/01 09:26:22;;;;;;;6.95;1.77;;;;;;;24.57;46.55;96231.91;4986289;28;20037;-71
2023/07/01 09:28:49;;;;;;;9.15;2.20;;;;;;;25.07;46.11;96234.38;4995833;28;20129;-70
2023/07/01 09:31:16;;;;;;;5.05;1.85;;;;;;;25.85;44.76;96236.53;4999243;28;20038;-70
2023/07/01 09:33:57;;;;;;;3.40;1.73;;;;;;;25.13;45.39;96235.25;5020394;28;20052;-70
2023/07/01 09:36:26;;;;;;;4.97;1.80;;;;;;;25.33;44.25;96234.69;5003139;28;20598;-71
2023/07/01 09:38:52;;;;;;;;;;;;;;;25.13;45.19;96228.88;5002986;28;20148;-71
2023/07/01 09:41:20;;;;;;;3.15;1.75;;;;;;;25.36;43.42;96225.34;4998449;28;20701;-69
2023/07/01 09:43:48;;;;;;;5.35;1.88;;;;;;;25.42;44.08;96219.09;5001054;28;20097;-69
2023/07/01 09:46:13;;;;;;;3.95;1.50;;;;;;;25.72;43.24;96229.13;4995772;28;20141;-69
2023/07/01 09:48:51;;;;;;;4.60;1.80;;;;;;;25.89;41.37;96223.88;5001439;28;20168;-70
2023/07/01 09:51:17;;;;;;;4.07;1.63;;;;;;;25.86;41.06;96224.81;4977460;28;20554;-71
2023/07/01 09:53:43;;;;;;;4.95;1.50;;;;;;;25.25;43.35;96213.13;4981218;28;20069;-71
2023/07/01 09:56:08;;;;;;;5.10;1.40;;;;;;;25.53;43.22;96216.50;4977979;28;20943;-70
2023/07/01 09:58:34;;;;;;;2.45;1.60;;;;;;;25.38;44.15;96216.47;4982432;28;20137;-69
2023/07/01 10:01:00;;;;;;;6.22;2.05;;;;;;;25.81;43.21;96216.31;4996743;28;20177;-68
2023/07/01 10:03:26;;;;;;;4.63;1.80;;;;;;;25.89;43.64;96207.03;4973076;28;20086;-70
2023/07/01 10:05:53;;;;;;;4.15;1.95;;;;;;;25.36;42.57;96205.72;4981095;28;20038;-68
2023/07/01 10:08:19;;;;;;;4.07;1.73;;;;;;;24.34;44.22;96199.75;4986684;28;20038;-75
2023/07/01 10:10:52;;;;;;;3.75;1.80;;;;;;;24.42;44.43;96200.22;4949581;28;20459;-70
2023/07/01 10:13:20;;;;;;;3.70;1.98;;;;;;;24.83;43.91;96199.94;4979134;28;20255;-70
2023/07/01 10:15:46;;;;;;;3.63;1.70;;;;;;;25.12;44.41;96190.91;4982906;28;20137;-70
2023/07/01 10:18:22;;;;;;;9.77;2.40;;;;;;;25.02;44.08;96203.44;4977339;28;20066;-71
2023/07/01 10:20:48;;;;;;;5.68;1.50;;;;;;;25.06;42.54;96199.19;4982360;28;20046;-71
2023/07/01 10:23:13;;;;;;;8.85;2.88;;;;;;;25.78;42.47;96195.59;4975648;28;20388;-71
2023/07/01 10:25:40;;;;;;;6.30;2.35;;;;;;;25.12;43.20;96193.69;4989624;28;20042;-70
2023/07/01 10:28:09;;;;;;;4.30;1.90;;;;;;;25.13;43.11;96195.25;4977920;28;20137;-72
2023/07/01 10:30:44;;;;;;;3.00;1.73;;;;;;;24.79;44.01;96195.28;4981617;28;20045;-70
2023/07/01 10:33:30;;;;;;;3.40;1.70;;;;;;;25.17;43.96;96184.63;4976887;28;20097;-72
2023/07/01 10:36:18;;;;;;;2.53;1.55;;;;;;;25.35;43.18;96189.38;4981759;28;20050;-69
2023/07/01 10:38:44;;;;;;;7.40;1.85;;;;;;;25.05;42.59;96183.63;4966184;28;20046;-68
2023/07/01 10:41:09;;;;;;;4.13;1.88;;;;;;;25.52;42.76;96178.53;4963224;28;20193;-69
2023/07/01 10:43:39;;;;;;;3.08;1.50;;;;;;;25.59;43.42;96171.75;5002777;28;20088;-70
2023/07/01 10:46:07;;;;;;;5.85;1.55;;;;;;;25.20;42.34;96178.09;4999599;28;20186;-68
2023/07/01 10:48:34;;;;;;;9.20;2.00;;;;;;;25.10;43.28;96173.78;4985400;28;20511;-70
2023/07/01 10:51:10;;;;;;;5.30;1.98;;;;;;;25.34;42.97;96171.03;4965821;28;20520;-71
2023/07/01 10:53:56;;;;;;;4.03;1.73;;;;;;;25.61;42.91;96166.47;4965228;28;20043;-69
2023/07/01 10:56:21;;;;;;;7.53;1.80;;;;;;;25.33;43.76;96161.81;4961764;28;20046;-71
2023/07/01 10:59:22;;;;;;;6.50;1.55;;;;;;;25.53;43.67;96152.81;4966393;28;20047;-71
2023/07/01 11:01:52;;;;;;;4.80;1.88;;;;;;;25.82;43.55;96161.75;4948406;28;20108;-70
2023/07/01 11:04:19;;;;;;;4.97;1.70;;;;;;;25.84;42.36;96153.63;4961031;28;20046;-70
2023/07/01 11:06:47;;;;;;;3.30;1.67;;;;;;;26.39;41.20;96146.69;4973705;28;20138;-69
2023/07/01 11:09:13;;;;;;;3.38;1.70;;;;;;;26.62;41.16;96142.22;4980705;28;20077;-69
2023/07/01 11:11:38;;;;;;;4.53;1.85;;;;;;;26.47;41.52;96139.41;4985541;28;20048;-68
2023/07/01 11:14:09;;;;;;;4.70;1.95;;;;;;;26.33;41.14;96141.00;4981368;28;20038;-69
2023/07/01 11:16:36;;;;;;;4.63;1.85;;;;;;;25.76;41.88;96144.81;4985421;28;20117;-71
2023/07/01 11:19:14;;;;;;;2.97;1.50;;;;;;;25.51;42.91;96127.25;4984793;28;20038;-70
2023/07/01 11:21:40;;;;;;;3.13;1.58;;;;;;;25.80;42.66;96122.19;4985757;28;20076;-69
2023/07/01 11:24:07;;;;;;;3.30;1.73;;;;;;;25.64;42.65;96123.44;4980330;28;20075;-70
2023/07/01 11:26:35;;;;;;;4.78;1.80;;;;;;;25.48;43.98;96122.63;4990633;28;20333;-69